sensor_id;sensor_type;location;lat;lon;timestamp;P1;durP1;ratioP1;P2;durP2;ratioP2
75090;SDS011;63674;48.048;8.306;2024-01-11T00:00:05;16.92;;;6.05;;
75090;SDS011;63674;48.048;8.306;2024-01-11T00:02:35;15.90;;;4.97;;
75090;SDS011;63674;48.048;8.306;2024-01-11T00:05:04;17.50;;;6.23;;
75090;SDS011;63674;48.048;8.306;2024-01-11T00:07:34;14.88;;;5.28;;
75090;SDS011;63674;48.048;8.306;2024-01-11T00:10:03;14.52;;;5.35;;
75090;SDS011;63674;48.048;8.306;2024-01-11T00:12:33;11.80;;;4.35;;
75090;SDS011;63674;48.048;8.306;2024-01-11T00:15:03;12.13;;;4.55;;
75090;SDS011;63674;48.048;8.306;2024-01-11T00:17:32;15.33;;;4.80;;
75090;SDS011;63674;48.048;8.306;2024-01-11T00:20:01;11.98;;;5.05;;
75090;SDS011;63674;48.048;8.306;2024-01-11T00:22:30;15.05;;;5.38;;
75090;SDS011;63674;48.048;8.306;2024-01-11T00:24:58;19.42;;;7.20;;
75090;SDS011;63674;48.048;8.306;2024-01-11T00:27:27;17.10;;;5.82;;
75090;SDS011;63674;48.048;8.306;2024-01-11T00:29:55;15.13;;;5.10;;
75090;SDS011;63674;48.048;8.306;2024-01-11T00:32:25;13.33;;;4.67;;
75090;SDS011;63674;48.048;8.306;2024-01-11T00:34:54;18.48;;;5.95;;
75090;SDS011;63674;48.048;8.306;2024-01-11T00:37:23;19.60;;;6.28;;
75090;SDS011;63674;48.048;8.306;2024-01-11T00:39:52;21.20;;;6.55;;
75090;SDS011;63674;48.048;8.306;2024-01-11T00:42:20;18.97;;;5.60;;
75090;SDS011;63674;48.048;8.306;2024-01-11T00:44:49;15.15;;;5.50;;
75090;SDS011;63674;48.048;8.306;2024-01-11T00:47:18;13.48;;;4.53;;
75090;SDS011;63674;48.048;8.306;2024-01-11T00:49:48;13.00;;;4.57;;
75090;SDS011;63674;48.048;8.306;2024-01-11T00:52:16;12.45;;;4.30;;
75090;SDS011;63674;48.048;8.306;2024-01-11T00:54:45;13.57;;;4.50;;
75090;SDS011;63674;48.048;8.306;2024-01-11T00:57:13;11.73;;;4.07;;
75090;SDS011;63674;48.048;8.306;2024-01-11T00:59:44;13.38;;;4.75;;
75090;SDS011;63674;48.048;8.306;2024-01-11T01:02:12;12.07;;;4.32;;
75090;SDS011;63674;48.048;8.306;2024-01-11T01:04:41;12.48;;;4.65;;
75090;SDS011;63674;48.048;8.306;2024-01-11T01:07:11;13.00;;;4.60;;
75090;SDS011;63674;48.048;8.306;2024-01-11T01:09:39;13.25;;;4.55;;
75090;SDS011;63674;48.048;8.306;2024-01-11T01:12:08;16.55;;;4.93;;
75090;SDS011;63674;48.048;8.306;2024-01-11T01:14:37;15.45;;;5.03;;
75090;SDS011;63674;48.048;8.306;2024-01-11T01:17:05;12.93;;;4.35;;
75090;SDS011;63674;48.048;8.306;2024-01-11T01:19:34;12.03;;;3.97;;
75090;SDS011;63674;48.048;8.306;2024-01-11T01:22:03;10.80;;;3.50;;
75090;SDS011;63674;48.048;8.306;2024-01-11T01:24:33;10.35;;;3.40;;
75090;SDS011;63674;48.048;8.306;2024-01-11T01:27:01;8.80;;;2.95;;
75090;SDS011;63674;48.048;8.306;2024-01-11T01:29:30;12.60;;;3.60;;
75090;SDS011;63674;48.048;8.306;2024-01-11T01:31:59;11.47;;;3.70;;
75090;SDS011;63674;48.048;8.306;2024-01-11T01:34:28;10.38;;;3.80;;
75090;SDS011;63674;48.048;8.306;2024-01-11T01:36:56;11.15;;;3.72;;
75090;SDS011;63674;48.048;8.306;2024-01-11T01:39:25;9.48;;;3.00;;
75090;SDS011;63674;48.048;8.306;2024-01-11T01:41:54;10.60;;;3.40;;
75090;SDS011;63674;48.048;8.306;2024-01-11T01:44:23;10.50;;;3.00;;
75090;SDS011;63674;48.048;8.306;2024-01-11T01:46:52;10.30;;;3.00;;
75090;SDS011;63674;48.048;8.306;2024-01-11T01:49:21;14.30;;;3.90;;
75090;SDS011;63674;48.048;8.306;2024-01-11T01:51:50;13.80;;;4.43;;
75090;SDS011;63674;48.048;8.306;2024-01-11T01:54:21;13.02;;;4.20;;
75090;SDS011;63674;48.048;8.306;2024-01-11T01:56:52;12.53;;;4.60;;
75090;SDS011;63674;48.048;8.306;2024-01-11T01:59:23;14.02;;;4.43;;
75090;SDS011;63674;48.048;8.306;2024-01-11T02:01:54;13.45;;;4.93;;
75090;SDS011;63674;48.048;8.306;2024-01-11T02:04:23;16.20;;;4.70;;
75090;SDS011;63674;48.048;8.306;2024-01-11T02:06:51;12.57;;;3.58;;
75090;SDS011;63674;48.048;8.306;2024-01-11T02:09:22;9.37;;;3.20;;
75090;SDS011;63674;48.048;8.306;2024-01-11T02:11:52;9.85;;;3.55;;
75090;SDS011;63674;48.048;8.306;2024-01-11T02:14:22;9.93;;;3.50;;
75090;SDS011;63674;48.048;8.306;2024-01-11T02:16:51;11.73;;;3.63;;
75090;SDS011;63674;48.048;8.306;2024-01-11T02:19:20;11.18;;;3.88;;
75090;SDS011;63674;48.048;8.306;2024-01-11T02:21:49;11.43;;;3.50;;
75090;SDS011;63674;48.048;8.306;2024-01-11T02:24:22;13.75;;;3.60;;
75090;SDS011;63674;48.048;8.306;2024-01-11T02:26:57;11.20;;;3.25;;
75090;SDS011;63674;48.048;8.306;2024-01-11T02:29:45;10.90;;;3.53;;
75090;SDS011;63674;48.048;8.306;2024-01-11T02:32:32;12.80;;;3.58;;
75090;SDS011;63674;48.048;8.306;2024-01-11T02:35:20;9.50;;;3.17;;
75090;SDS011;63674;48.048;8.306;2024-01-11T02:38:08;13.57;;;3.50;;
75090;SDS011;63674;48.048;8.306;2024-01-11T02:40:56;11.48;;;2.95;;
75090;SDS011;63674;48.048;8.306;2024-01-11T02:43:46;10.63;;;2.70;;
75090;SDS011;63674;48.048;8.306;2024-01-11T02:46:34;8.93;;;2.60;;
75090;SDS011;63674;48.048;8.306;2024-01-11T02:49:21;10.07;;;2.73;;
75090;SDS011;63674;48.048;8.306;2024-01-11T02:52:08;9.38;;;2.58;;
75090;SDS011;63674;48.048;8.306;2024-01-11T02:54:55;6.75;;;2.00;;
75090;SDS011;63674;48.048;8.306;2024-01-11T02:57:44;12.10;;;2.40;;
75090;SDS011;63674;48.048;8.306;2024-01-11T03:00:31;8.18;;;2.38;;
75090;SDS011;63674;48.048;8.306;2024-01-11T03:03:18;8.97;;;2.80;;
75090;SDS011;63674;48.048;8.306;2024-01-11T03:06:05;8.25;;;2.35;;
75090;SDS011;63674;48.048;8.306;2024-01-11T03:08:52;7.22;;;2.08;;
75090;SDS011;63674;48.048;8.306;2024-01-11T03:11:39;6.80;;;2.03;;
75090;SDS011;63674;48.048;8.306;2024-01-11T03:14:28;5.93;;;1.73;;
75090;SDS011;63674;48.048;8.306;2024-01-11T03:17:15;8.73;;;2.57;;
75090;SDS011;63674;48.048;8.306;2024-01-11T03:20:03;13.55;;;3.15;;
75090;SDS011;63674;48.048;8.306;2024-01-11T03:22:51;11.68;;;3.40;;
75090;SDS011;63674;48.048;8.306;2024-01-11T03:25:39;7.45;;;2.15;;
75090;SDS011;63674;48.048;8.306;2024-01-11T03:28:26;13.48;;;3.92;;
75090;SDS011;63674;48.048;8.306;2024-01-11T03:31:14;17.77;;;6.17;;
75090;SDS011;63674;48.048;8.306;2024-01-11T03:34:01;16.77;;;5.20;;
75090;SDS011;63674;48.048;8.306;2024-01-11T03:36:49;16.52;;;5.60;;
75090;SDS011;63674;48.048;8.306;2024-01-11T03:39:36;13.27;;;4.00;;
75090;SDS011;63674;48.048;8.306;2024-01-11T03:42:05;11.40;;;3.55;;
75090;SDS011;63674;48.048;8.306;2024-01-11T03:44:35;10.37;;;3.00;;
75090;SDS011;63674;48.048;8.306;2024-01-11T03:47:06;11.40;;;2.72;;
75090;SDS011;63674;48.048;8.306;2024-01-11T03:49:34;10.80;;;2.60;;
75090;SDS011;63674;48.048;8.306;2024-01-11T03:52:04;9.82;;;2.35;;
75090;SDS011;63674;48.048;8.306;2024-01-11T03:54:33;10.18;;;2.50;;
75090;SDS011;63674;48.048;8.306;2024-01-11T03:57:02;11.33;;;2.60;;
75090;SDS011;63674;48.048;8.306;2024-01-11T03:59:31;10.25;;;2.55;;
75090;SDS011;63674;48.048;8.306;2024-01-11T04:01:59;9.15;;;2.22;;
75090;SDS011;63674;48.048;8.306;2024-01-11T04:04:29;7.35;;;2.45;;
75090;SDS011;63674;48.048;8.306;2024-01-11T04:06:58;7.28;;;1.75;;
75090;SDS011;63674;48.048;8.306;2024-01-11T04:09:26;6.95;;;1.58;;
75090;SDS011;63674;48.048;8.306;2024-01-11T04:11:55;5.82;;;1.70;;
75090;SDS011;63674;48.048;8.306;2024-01-11T04:14:23;6.85;;;1.60;;
75090;SDS011;63674;48.048;8.306;2024-01-11T04:16:52;7.88;;;2.25;;
75090;SDS011;63674;48.048;8.306;2024-01-11T04:19:21;12.93;;;4.25;;
75090;SDS011;63674;48.048;8.306;2024-01-11T04:21:53;13.30;;;3.90;;
75090;SDS011;63674;48.048;8.306;2024-01-11T04:24:22;7.53;;;2.53;;
75090;SDS011;63674;48.048;8.306;2024-01-11T04:26:50;11.57;;;4.00;;
75090;SDS011;63674;48.048;8.306;2024-01-11T04:29:19;15.07;;;5.05;;
75090;SDS011;63674;48.048;8.306;2024-01-11T04:31:47;15.15;;;4.25;;
75090;SDS011;63674;48.048;8.306;2024-01-11T04:34:16;7.53;;;2.40;;
75090;SDS011;63674;48.048;8.306;2024-01-11T04:36:45;9.48;;;2.33;;
75090;SDS011;63674;48.048;8.306;2024-01-11T04:39:15;9.82;;;2.90;;
75090;SDS011;63674;48.048;8.306;2024-01-11T04:41:43;9.27;;;2.85;;
75090;SDS011;63674;48.048;8.306;2024-01-11T04:44:12;10.98;;;3.80;;
75090;SDS011;63674;48.048;8.306;2024-01-11T04:46:43;12.20;;;3.30;;
75090;SDS011;63674;48.048;8.306;2024-01-11T04:49:12;10.77;;;3.20;;
75090;SDS011;63674;48.048;8.306;2024-01-11T04:51:40;10.15;;;2.78;;
75090;SDS011;63674;48.048;8.306;2024-01-11T04:54:09;10.98;;;3.97;;
75090;SDS011;63674;48.048;8.306;2024-01-11T04:56:39;12.68;;;4.35;;
75090;SDS011;63674;48.048;8.306;2024-01-11T04:59:08;11.23;;;3.63;;
75090;SDS011;63674;48.048;8.306;2024-01-11T05:01:36;11.35;;;4.60;;
75090;SDS011;63674;48.048;8.306;2024-01-11T05:04:06;10.77;;;4.28;;
75090;SDS011;63674;48.048;8.306;2024-01-11T05:06:35;10.80;;;4.05;;
75090;SDS011;63674;48.048;8.306;2024-01-11T05:09:04;12.70;;;4.68;;
75090;SDS011;63674;48.048;8.306;2024-01-11T05:11:32;10.43;;;3.88;;
75090;SDS011;63674;48.048;8.306;2024-01-11T05:14:02;12.63;;;3.65;;
75090;SDS011;63674;48.048;8.306;2024-01-11T05:16:31;13.55;;;3.90;;
75090;SDS011;63674;48.048;8.306;2024-01-11T05:19:02;14.68;;;4.78;;
75090;SDS011;63674;48.048;8.306;2024-01-11T05:21:30;14.60;;;4.53;;
75090;SDS011;63674;48.048;8.306;2024-01-11T05:23:59;13.90;;;4.67;;
75090;SDS011;63674;48.048;8.306;2024-01-11T05:26:27;14.02;;;4.40;;
75090;SDS011;63674;48.048;8.306;2024-01-11T05:28:55;14.98;;;4.80;;
75090;SDS011;63674;48.048;8.306;2024-01-11T05:31:25;13.00;;;4.72;;
75090;SDS011;63674;48.048;8.306;2024-01-11T05:33:54;16.50;;;4.35;;
75090;SDS011;63674;48.048;8.306;2024-01-11T05:36:22;13.13;;;3.87;;
75090;SDS011;63674;48.048;8.306;2024-01-11T05:38:51;14.85;;;4.00;;
75090;SDS011;63674;48.048;8.306;2024-01-11T05:41:19;12.75;;;4.55;;
75090;SDS011;63674;48.048;8.306;2024-01-11T05:43:48;15.25;;;4.57;;
75090;SDS011;63674;48.048;8.306;2024-01-11T05:46:16;13.57;;;4.75;;
75090;SDS011;63674;48.048;8.306;2024-01-11T05:48:46;12.57;;;3.50;;
75090;SDS011;63674;48.048;8.306;2024-01-11T05:51:15;12.15;;;4.20;;
75090;SDS011;63674;48.048;8.306;2024-01-11T05:53:44;16.08;;;4.45;;
75090;SDS011;63674;48.048;8.306;2024-01-11T05:56:12;13.68;;;3.92;;
75090;SDS011;63674;48.048;8.306;2024-01-11T05:58:43;9.63;;;3.25;;
75090;SDS011;63674;48.048;8.306;2024-01-11T06:01:12;9.87;;;3.30;;
75090;SDS011;63674;48.048;8.306;2024-01-11T06:03:41;11.45;;;3.42;;
75090;SDS011;63674;48.048;8.306;2024-01-11T06:06:10;13.20;;;3.85;;
75090;SDS011;63674;48.048;8.306;2024-01-11T06:08:39;11.95;;;3.63;;
75090;SDS011;63674;48.048;8.306;2024-01-11T06:11:09;16.73;;;4.53;;
75090;SDS011;63674;48.048;8.306;2024-01-11T06:13:39;12.50;;;4.07;;
75090;SDS011;63674;48.048;8.306;2024-01-11T06:16:08;12.68;;;4.00;;
75090;SDS011;63674;48.048;8.306;2024-01-11T06:18:39;12.77;;;3.75;;
75090;SDS011;63674;48.048;8.306;2024-01-11T06:21:07;13.20;;;3.88;;
75090;SDS011;63674;48.048;8.306;2024-01-11T06:23:37;14.60;;;5.18;;
75090;SDS011;63674;48.048;8.306;2024-01-11T06:26:07;12.97;;;4.90;;
75090;SDS011;63674;48.048;8.306;2024-01-11T06:28:36;11.82;;;4.20;;
75090;SDS011;63674;48.048;8.306;2024-01-11T06:31:05;12.70;;;3.63;;
75090;SDS011;63674;48.048;8.306;2024-01-11T06:33:33;12.65;;;4.13;;
75090;SDS011;63674;48.048;8.306;2024-01-11T06:36:06;9.95;;;3.05;;
75090;SDS011;63674;48.048;8.306;2024-01-11T06:38:34;11.00;;;3.50;;
75090;SDS011;63674;48.048;8.306;2024-01-11T06:41:05;13.03;;;4.67;;
75090;SDS011;63674;48.048;8.306;2024-01-11T06:43:33;17.02;;;5.68;;
75090;SDS011;63674;48.048;8.306;2024-01-11T06:46:03;15.75;;;6.22;;
75090;SDS011;63674;48.048;8.306;2024-01-11T06:48:32;16.90;;;6.60;;
75090;SDS011;63674;48.048;8.306;2024-01-11T06:51:01;15.87;;;5.50;;
75090;SDS011;63674;48.048;8.306;2024-01-11T06:53:30;17.27;;;5.28;;
75090;SDS011;63674;48.048;8.306;2024-01-11T06:55:59;14.07;;;5.30;;
75090;SDS011;63674;48.048;8.306;2024-01-11T06:58:28;14.38;;;4.60;;
75090;SDS011;63674;48.048;8.306;2024-01-11T07:00:57;13.68;;;4.57;;
75090;SDS011;63674;48.048;8.306;2024-01-11T07:03:25;17.77;;;5.43;;
75090;SDS011;63674;48.048;8.306;2024-01-11T07:05:55;14.18;;;4.85;;
75090;SDS011;63674;48.048;8.306;2024-01-11T07:08:24;13.52;;;4.68;;
75090;SDS011;63674;48.048;8.306;2024-01-11T07:10:52;16.75;;;5.35;;
75090;SDS011;63674;48.048;8.306;2024-01-11T07:13:21;17.20;;;5.50;;
75090;SDS011;63674;48.048;8.306;2024-01-11T07:15:51;15.23;;;5.70;;
75090;SDS011;63674;48.048;8.306;2024-01-11T07:18:19;17.92;;;5.82;;
75090;SDS011;63674;48.048;8.306;2024-01-11T07:20:48;15.00;;;4.75;;
75090;SDS011;63674;48.048;8.306;2024-01-11T07:23:18;13.55;;;4.85;;
75090;SDS011;63674;48.048;8.306;2024-01-11T07:25:47;14.00;;;5.22;;
75090;SDS011;63674;48.048;8.306;2024-01-11T07:28:15;15.97;;;5.63;;
75090;SDS011;63674;48.048;8.306;2024-01-11T07:30:46;16.80;;;5.45;;
75090;SDS011;63674;48.048;8.306;2024-01-11T07:33:16;20.63;;;7.47;;
75090;SDS011;63674;48.048;8.306;2024-01-11T07:35:44;24.00;;;7.18;;
75090;SDS011;63674;48.048;8.306;2024-01-11T07:38:13;23.63;;;8.20;;
75090;SDS011;63674;48.048;8.306;2024-01-11T07:40:42;22.50;;;7.77;;
75090;SDS011;63674;48.048;8.306;2024-01-11T07:43:11;25.58;;;7.78;;
75090;SDS011;63674;48.048;8.306;2024-01-11T07:45:40;18.17;;;6.38;;
75090;SDS011;63674;48.048;8.306;2024-01-11T07:48:09;22.23;;;7.43;;
75090;SDS011;63674;48.048;8.306;2024-01-11T07:50:39;19.05;;;6.53;;
75090;SDS011;63674;48.048;8.306;2024-01-11T07:53:08;19.23;;;6.80;;
75090;SDS011;63674;48.048;8.306;2024-01-11T07:55:38;17.15;;;6.03;;
75090;SDS011;63674;48.048;8.306;2024-01-11T07:58:09;19.80;;;6.38;;
75090;SDS011;63674;48.048;8.306;2024-01-11T08:00:42;18.75;;;5.97;;
75090;SDS011;63674;48.048;8.306;2024-01-11T08:03:11;16.73;;;6.10;;
75090;SDS011;63674;48.048;8.306;2024-01-11T08:05:41;19.70;;;7.43;;
75090;SDS011;63674;48.048;8.306;2024-01-11T08:08:11;20.38;;;7.18;;
75090;SDS011;63674;48.048;8.306;2024-01-11T08:10:39;22.98;;;7.95;;
75090;SDS011;63674;48.048;8.306;2024-01-11T08:13:08;19.50;;;8.38;;
75090;SDS011;63674;48.048;8.306;2024-01-11T08:15:37;17.70;;;6.35;;
75090;SDS011;63674;48.048;8.306;2024-01-11T08:18:06;17.73;;;6.37;;
75090;SDS011;63674;48.048;8.306;2024-01-11T08:20:34;18.85;;;7.00;;
75090;SDS011;63674;48.048;8.306;2024-01-11T08:23:04;20.92;;;6.70;;
75090;SDS011;63674;48.048;8.306;2024-01-11T08:25:33;18.23;;;7.10;;
75090;SDS011;63674;48.048;8.306;2024-01-11T08:28:02;17.60;;;6.05;;
75090;SDS011;63674;48.048;8.306;2024-01-11T08:30:32;16.90;;;6.47;;
75090;SDS011;63674;48.048;8.306;2024-01-11T08:33:00;18.13;;;6.43;;
75090;SDS011;63674;48.048;8.306;2024-01-11T08:35:30;17.42;;;6.32;;
75090;SDS011;63674;48.048;8.306;2024-01-11T08:37:59;15.50;;;5.55;;
75090;SDS011;63674;48.048;8.306;2024-01-11T08:40:31;19.02;;;6.75;;
75090;SDS011;63674;48.048;8.306;2024-01-11T08:42:59;20.30;;;6.37;;
75090;SDS011;63674;48.048;8.306;2024-01-11T08:45:31;20.45;;;7.53;;
75090;SDS011;63674;48.048;8.306;2024-01-11T08:47:59;19.30;;;6.88;;
75090;SDS011;63674;48.048;8.306;2024-01-11T08:50:28;21.27;;;8.25;;
75090;SDS011;63674;48.048;8.306;2024-01-11T08:52:57;21.88;;;8.55;;
75090;SDS011;63674;48.048;8.306;2024-01-11T08:55:26;30.00;;;9.45;;
75090;SDS011;63674;48.048;8.306;2024-01-11T08:57:56;25.92;;;9.05;;
75090;SDS011;63674;48.048;8.306;2024-01-11T09:00:26;22.50;;;8.80;;
75090;SDS011;63674;48.048;8.306;2024-01-11T09:02:54;21.00;;;8.68;;
75090;SDS011;63674;48.048;8.306;2024-01-11T09:05:24;15.93;;;6.80;;
75090;SDS011;63674;48.048;8.306;2024-01-11T09:07:53;19.00;;;7.43;;
75090;SDS011;63674;48.048;8.306;2024-01-11T09:10:22;20.23;;;8.13;;
75090;SDS011;63674;48.048;8.306;2024-01-11T09:12:51;23.55;;;8.70;;
75090;SDS011;63674;48.048;8.306;2024-01-11T09:15:21;18.05;;;7.68;;
75090;SDS011;63674;48.048;8.306;2024-01-11T09:17:50;25.70;;;8.60;;
75090;SDS011;63674;48.048;8.306;2024-01-11T09:20:19;25.73;;;8.77;;
75090;SDS011;63674;48.048;8.306;2024-01-11T09:22:49;23.05;;;8.80;;
75090;SDS011;63674;48.048;8.306;2024-01-11T09:25:17;24.55;;;8.93;;
75090;SDS011;63674;48.048;8.306;2024-01-11T09:27:46;22.85;;;7.28;;
75090;SDS011;63674;48.048;8.306;2024-01-11T09:30:16;21.60;;;8.38;;
75090;SDS011;63674;48.048;8.306;2024-01-11T09:32:46;23.40;;;7.93;;
75090;SDS011;63674;48.048;8.306;2024-01-11T09:35:15;22.45;;;8.70;;
75090;SDS011;63674;48.048;8.306;2024-01-11T09:37:43;19.27;;;7.13;;
75090;SDS011;63674;48.048;8.306;2024-01-11T09:40:13;15.85;;;6.43;;
75090;SDS011;63674;48.048;8.306;2024-01-11T09:42:43;18.83;;;5.72;;
75090;SDS011;63674;48.048;8.306;2024-01-11T09:45:13;21.43;;;7.80;;
75090;SDS011;63674;48.048;8.306;2024-01-11T09:47:43;27.90;;;12.23;;
75090;SDS011;63674;48.048;8.306;2024-01-11T09:50:15;27.20;;;11.13;;
75090;SDS011;63674;48.048;8.306;2024-01-11T09:52:45;17.83;;;7.15;;
75090;SDS011;63674;48.048;8.306;2024-01-11T09:55:18;29.58;;;12.52;;
75090;SDS011;63674;48.048;8.306;2024-01-11T09:57:48;21.37;;;9.33;;
75090;SDS011;63674;48.048;8.306;2024-01-11T10:00:22;24.08;;;9.85;;
75090;SDS011;63674;48.048;8.306;2024-01-11T10:03:12;27.38;;;12.20;;
75090;SDS011;63674;48.048;8.306;2024-01-11T10:05:42;25.77;;;11.90;;
75090;SDS011;63674;48.048;8.306;2024-01-11T10:08:12;30.35;;;12.45;;
75090;SDS011;63674;48.048;8.306;2024-01-11T10:10:41;30.60;;;13.73;;
75090;SDS011;63674;48.048;8.306;2024-01-11T10:13:10;22.05;;;9.30;;
75090;SDS011;63674;48.048;8.306;2024-01-11T10:15:38;33.10;;;12.07;;
75090;SDS011;63674;48.048;8.306;2024-01-11T10:18:07;30.33;;;12.07;;
75090;SDS011;63674;48.048;8.306;2024-01-11T10:20:35;26.77;;;11.02;;
75090;SDS011;63674;48.048;8.306;2024-01-11T10:23:06;28.23;;;11.00;;
75090;SDS011;63674;48.048;8.306;2024-01-11T10:25:35;24.13;;;8.77;;
75090;SDS011;63674;48.048;8.306;2024-01-11T10:28:04;26.65;;;9.98;;
75090;SDS011;63674;48.048;8.306;2024-01-11T10:30:35;22.15;;;8.85;;
75090;SDS011;63674;48.048;8.306;2024-01-11T10:33:04;28.90;;;10.85;;
75090;SDS011;63674;48.048;8.306;2024-01-11T10:35:35;27.20;;;10.27;;
75090;SDS011;63674;48.048;8.306;2024-01-11T10:38:04;24.10;;;9.38;;
75090;SDS011;63674;48.048;8.306;2024-01-11T10:40:38;25.60;;;9.63;;
75090;SDS011;63674;48.048;8.306;2024-01-11T10:43:08;20.65;;;8.20;;
75090;SDS011;63674;48.048;8.306;2024-01-11T10:45:38;27.42;;;10.80;;
75090;SDS011;63674;48.048;8.306;2024-01-11T10:48:13;24.20;;;9.23;;
75090;SDS011;63674;48.048;8.306;2024-01-11T10:50:44;25.58;;;9.65;;
75090;SDS011;63674;48.048;8.306;2024-01-11T10:53:25;24.48;;;9.90;;
75090;SDS011;63674;48.048;8.306;2024-01-11T10:56:08;19.60;;;7.70;;
75090;SDS011;63674;48.048;8.306;2024-01-11T10:58:39;24.05;;;9.20;;
75090;SDS011;63674;48.048;8.306;2024-01-11T11:01:10;22.58;;;8.95;;
75090;SDS011;63674;48.048;8.306;2024-01-11T11:03:39;22.48;;;8.73;;
75090;SDS011;63674;48.048;8.306;2024-01-11T11:06:09;24.48;;;10.38;;
75090;SDS011;63674;48.048;8.306;2024-01-11T11:08:41;23.92;;;9.80;;
75090;SDS011;63674;48.048;8.306;2024-01-11T11:11:10;22.80;;;8.85;;
75090;SDS011;63674;48.048;8.306;2024-01-11T11:13:40;23.80;;;9.70;;
75090;SDS011;63674;48.048;8.306;2024-01-11T11:16:11;23.00;;;8.30;;
75090;SDS011;63674;48.048;8.306;2024-01-11T11:18:39;18.25;;;7.35;;
75090;SDS011;63674;48.048;8.306;2024-01-11T11:21:08;20.52;;;8.00;;
75090;SDS011;63674;48.048;8.306;2024-01-11T11:23:38;16.88;;;6.82;;
75090;SDS011;63674;48.048;8.306;2024-01-11T11:26:13;21.25;;;8.55;;
75090;SDS011;63674;48.048;8.306;2024-01-11T11:28:44;22.10;;;8.38;;
75090;SDS011;63674;48.048;8.306;2024-01-11T11:31:12;19.02;;;7.82;;
75090;SDS011;63674;48.048;8.306;2024-01-11T11:33:41;20.42;;;8.23;;
75090;SDS011;63674;48.048;8.306;2024-01-11T11:36:11;21.50;;;8.52;;
75090;SDS011;63674;48.048;8.306;2024-01-11T11:38:41;18.55;;;8.02;;
75090;SDS011;63674;48.048;8.306;2024-01-11T11:41:11;18.05;;;7.50;;
75090;SDS011;63674;48.048;8.306;2024-01-11T11:43:40;18.85;;;7.43;;
75090;SDS011;63674;48.048;8.306;2024-01-11T11:46:09;18.98;;;7.93;;
75090;SDS011;63674;48.048;8.306;2024-01-11T11:48:50;17.10;;;7.63;;
75090;SDS011;63674;48.048;8.306;2024-01-11T11:51:22;20.38;;;8.88;;
75090;SDS011;63674;48.048;8.306;2024-01-11T11:53:54;19.65;;;8.35;;
75090;SDS011;63674;48.048;8.306;2024-01-11T11:56:25;20.85;;;9.82;;
75090;SDS011;63674;48.048;8.306;2024-01-11T11:58:54;22.20;;;10.13;;
75090;SDS011;63674;48.048;8.306;2024-01-11T12:01:22;18.50;;;8.90;;
75090;SDS011;63674;48.048;8.306;2024-01-11T12:03:52;19.27;;;8.68;;
75090;SDS011;63674;48.048;8.306;2024-01-11T12:06:21;15.00;;;6.30;;
75090;SDS011;63674;48.048;8.306;2024-01-11T12:08:52;13.95;;;6.20;;
75090;SDS011;63674;48.048;8.306;2024-01-11T12:11:25;15.98;;;6.30;;
75090;SDS011;63674;48.048;8.306;2024-01-11T12:13:54;11.88;;;5.13;;
75090;SDS011;63674;48.048;8.306;2024-01-11T12:16:24;15.20;;;6.18;;
75090;SDS011;63674;48.048;8.306;2024-01-11T12:18:57;13.45;;;6.30;;
75090;SDS011;63674;48.048;8.306;2024-01-11T12:21:25;13.90;;;5.60;;
75090;SDS011;63674;48.048;8.306;2024-01-11T12:23:54;12.77;;;5.10;;
75090;SDS011;63674;48.048;8.306;2024-01-11T12:26:23;14.30;;;5.90;;
75090;SDS011;63674;48.048;8.306;2024-01-11T12:28:53;12.88;;;5.18;;
75090;SDS011;63674;48.048;8.306;2024-01-11T12:31:22;12.80;;;5.50;;
75090;SDS011;63674;48.048;8.306;2024-01-11T12:33:51;11.57;;;4.63;;
75090;SDS011;63674;48.048;8.306;2024-01-11T12:36:21;13.07;;;6.40;;
75090;SDS011;63674;48.048;8.306;2024-01-11T12:38:52;11.85;;;5.30;;
75090;SDS011;63674;48.048;8.306;2024-01-11T12:41:21;15.48;;;7.53;;
75090;SDS011;63674;48.048;8.306;2024-01-11T12:43:52;14.45;;;6.25;;
75090;SDS011;63674;48.048;8.306;2024-01-11T12:46:21;14.40;;;6.47;;
75090;SDS011;63674;48.048;8.306;2024-01-11T12:48:50;16.25;;;7.57;;
75090;SDS011;63674;48.048;8.306;2024-01-11T12:51:19;18.70;;;7.70;;
75090;SDS011;63674;48.048;8.306;2024-01-11T12:53:50;16.13;;;7.55;;
75090;SDS011;63674;48.048;8.306;2024-01-11T12:56:21;18.70;;;8.48;;
75090;SDS011;63674;48.048;8.306;2024-01-11T12:58:52;21.90;;;10.43;;
75090;SDS011;63674;48.048;8.306;2024-01-11T13:01:34;17.55;;;7.57;;
75090;SDS011;63674;48.048;8.306;2024-01-11T13:04:02;15.18;;;6.38;;
75090;SDS011;63674;48.048;8.306;2024-01-11T13:06:32;14.65;;;6.90;;
75090;SDS011;63674;48.048;8.306;2024-01-11T13:09:01;14.80;;;6.95;;
75090;SDS011;63674;48.048;8.306;2024-01-11T13:11:30;17.05;;;6.93;;
75090;SDS011;63674;48.048;8.306;2024-01-11T13:14:01;18.88;;;7.10;;
75090;SDS011;63674;48.048;8.306;2024-01-11T13:16:33;17.35;;;7.68;;
75090;SDS011;63674;48.048;8.306;2024-01-11T13:19:02;17.10;;;7.82;;
75090;SDS011;63674;48.048;8.306;2024-01-11T13:21:45;17.90;;;7.20;;
75090;SDS011;63674;48.048;8.306;2024-01-11T13:24:14;16.40;;;7.35;;
75090;SDS011;63674;48.048;8.306;2024-01-11T13:26:43;16.23;;;6.53;;
75090;SDS011;63674;48.048;8.306;2024-01-11T13:29:13;18.00;;;7.97;;
75090;SDS011;63674;48.048;8.306;2024-01-11T13:31:41;17.52;;;7.65;;
75090;SDS011;63674;48.048;8.306;2024-01-11T13:34:10;14.38;;;5.70;;
75090;SDS011;63674;48.048;8.306;2024-01-11T13:36:38;18.80;;;8.18;;
75090;SDS011;63674;48.048;8.306;2024-01-11T13:39:07;24.08;;;12.32;;
75090;SDS011;63674;48.048;8.306;2024-01-11T13:41:36;34.85;;;14.60;;
75090;SDS011;63674;48.048;8.306;2024-01-11T13:44:07;29.33;;;12.75;;
75090;SDS011;63674;48.048;8.306;2024-01-11T13:46:37;22.23;;;9.57;;
75090;SDS011;63674;48.048;8.306;2024-01-11T13:49:06;18.40;;;7.70;;
75090;SDS011;63674;48.048;8.306;2024-01-11T13:51:34;16.80;;;6.88;;
75090;SDS011;63674;48.048;8.306;2024-01-11T13:54:19;16.80;;;7.60;;
75090;SDS011;63674;48.048;8.306;2024-01-11T13:56:49;19.33;;;8.30;;
75090;SDS011;63674;48.048;8.306;2024-01-11T13:59:19;19.55;;;7.95;;
75090;SDS011;63674;48.048;8.306;2024-01-11T14:01:49;17.40;;;7.57;;
75090;SDS011;63674;48.048;8.306;2024-01-11T14:04:18;16.13;;;7.25;;
75090;SDS011;63674;48.048;8.306;2024-01-11T14:06:49;16.48;;;7.57;;
75090;SDS011;63674;48.048;8.306;2024-01-11T14:09:19;21.45;;;9.50;;
75090;SDS011;63674;48.048;8.306;2024-01-11T14:11:49;13.70;;;6.33;;
75090;SDS011;63674;48.048;8.306;2024-01-11T14:14:18;18.15;;;8.27;;
75090;SDS011;63674;48.048;8.306;2024-01-11T14:16:47;21.02;;;9.50;;
75090;SDS011;63674;48.048;8.306;2024-01-11T14:19:18;18.30;;;8.13;;
75090;SDS011;63674;48.048;8.306;2024-01-11T14:21:47;20.10;;;8.02;;
75090;SDS011;63674;48.048;8.306;2024-01-11T14:24:17;19.75;;;8.55;;
75090;SDS011;63674;48.048;8.306;2024-01-11T14:26:57;19.58;;;8.85;;
75090;SDS011;63674;48.048;8.306;2024-01-11T14:29:26;20.17;;;8.38;;
75090;SDS011;63674;48.048;8.306;2024-01-11T14:31:57;21.67;;;9.70;;
75090;SDS011;63674;48.048;8.306;2024-01-11T14:34:25;20.13;;;9.10;;
75090;SDS011;63674;48.048;8.306;2024-01-11T14:36:54;17.73;;;6.40;;
75090;SDS011;63674;48.048;8.306;2024-01-11T14:39:23;19.33;;;8.18;;
75090;SDS011;63674;48.048;8.306;2024-01-11T14:41:52;20.20;;;9.45;;
75090;SDS011;63674;48.048;8.306;2024-01-11T14:44:21;17.73;;;8.25;;
75090;SDS011;63674;48.048;8.306;2024-01-11T14:46:49;24.23;;;11.38;;
75090;SDS011;63674;48.048;8.306;2024-01-11T14:49:19;22.65;;;9.45;;
75090;SDS011;63674;48.048;8.306;2024-01-11T14:51:49;23.25;;;10.73;;
75090;SDS011;63674;48.048;8.306;2024-01-11T14:54:18;22.17;;;10.35;;
75090;SDS011;63674;48.048;8.306;2024-01-11T14:56:47;25.00;;;11.48;;